AAL8L KSFO-KMIA
Flight info
| Callsign | AAL8L |
|---|---|
| Flight time | N/A |
| Altitude | 35000 |
| Route | WESLA5 KAYEX LOSHN BOILE BLH EWM/N0474F370 SJT CLL LCH LEV Y290 GAWKS FROGZ5 |
| Aircraft | B77W/H-SDE1E2E3FGHIJ2J3J4J5M1RWXY/LB1D1 |
Departure
| Time | N/A |
|---|---|
| Airport | San Francisco International Airport (KSFO) |
Arrival
| Time | 2026-05-03 22:18 |
|---|---|
| Airport | Miami International Airport (KMIA) |
| Time | Latitude | Longitude | Altitude | Speed | Heading |
|---|---|---|---|---|---|
| 2026-05-03 20:15 | 30.72467 | -97.00343 | 37196 ft | 598 kts | 99° |
| 2026-05-03 20:15 | 30.70553 | -96.90933 | 37198 ft | 598 kts | 99° |
| 2026-05-03 20:16 | 30.68633 | -96.81529 | 37223 ft | 598 kts | 99° |
| 2026-05-03 20:16 | 30.66703 | -96.72116 | 37202 ft | 599 kts | 99° |
| 2026-05-03 20:17 | 30.64767 | -96.62709 | 37201 ft | 599 kts | 99° |
| 2026-05-03 20:17 | 30.62823 | -96.53301 | 37194 ft | 599 kts | 99° |
| 2026-05-03 20:18 | 30.60875 | -96.43904 | 37209 ft | 599 kts | 99° |
| 2026-05-03 20:18 | 30.57920 | -96.34909 | 37221 ft | 602 kts | 124° |
| 2026-05-03 20:18 | 30.55254 | -96.31181 | 37191 ft | 599 kts | 140° |
| 2026-05-03 20:19 | 30.51976 | -96.28274 | 37201 ft | 589 kts | 155° |
| 2026-05-03 20:19 | 30.48314 | -96.26280 | 37195 ft | 576 kts | 169° |
| 2026-05-03 20:19 | 30.44478 | -96.25233 | 37161 ft | 559 kts | 183° |
| 2026-05-03 20:19 | 30.40662 | -96.25111 | 37152 ft | 540 kts | 196° |
| 2026-05-03 20:20 | 30.37041 | -96.25843 | 37137 ft | 519 kts | 208° |
| 2026-05-03 20:20 | 30.33740 | -96.27321 | 37083 ft | 499 kts | 220° |
| 2026-05-03 20:20 | 30.30851 | -96.29404 | 37063 ft | 480 kts | 230° |
| 2026-05-03 20:20 | 30.28425 | -96.31945 | 37049 ft | 464 kts | 239° |
| 2026-05-03 20:21 | 30.26461 | -96.34832 | 37035 ft | 449 kts | 248° |
| 2026-05-03 20:21 | 30.24973 | -96.37939 | 37020 ft | 436 kts | 256° |
| 2026-05-03 20:21 | 30.23946 | -96.41192 | 37000 ft | 426 kts | 263° |
| 2026-05-03 20:22 | 30.22811 | -96.47825 | 36982 ft | 416 kts | 272° |
| 2026-05-03 20:22 | 30.22792 | -96.51123 | 37008 ft | 406 kts | 283° |
| 2026-05-03 20:22 | 30.23427 | -96.54202 | 37068 ft | 397 kts | 289° |
| 2026-05-03 20:22 | 30.24381 | -96.57174 | 37082 ft | 394 kts | 302° |
| 2026-05-03 20:23 | 30.26230 | -96.59487 | 37121 ft | 399 kts | 321° |
| 2026-05-03 20:23 | 30.28814 | -96.60808 | 37135 ft | 417 kts | 339° |
| 2026-05-03 20:23 | 30.31730 | -96.61304 | 37143 ft | 429 kts | 346° |
| 2026-05-03 20:24 | 30.37774 | -96.61506 | 37185 ft | 440 kts | 351° |
| 2026-05-03 20:24 | 30.43950 | -96.60313 | 37187 ft | 474 kts | 12° |
| 2026-05-03 20:24 | 30.46889 | -96.58365 | 37207 ft | 500 kts | 25° |
| 2026-05-03 20:25 | 30.49532 | -96.55636 | 37206 ft | 517 kts | 34° |
| 2026-05-03 20:25 | 30.54398 | -96.49394 | 37193 ft | 521 kts | 36° |
| 2026-05-03 20:26 | 30.58783 | -96.42582 | 37183 ft | 553 kts | 58° |
| 2026-05-03 20:26 | 30.59829 | -96.38200 | 37199 ft | 577 kts | 76° |
| 2026-05-03 20:26 | 30.59824 | -96.33480 | 37191 ft | 591 kts | 92° |
| 2026-05-03 20:27 | 30.58486 | -96.24030 | 37193 ft | 596 kts | 96° |
| 2026-05-03 20:27 | 30.57023 | -96.14564 | 37176 ft | 597 kts | 95° |
| 2026-05-03 20:28 | 30.55704 | -96.05047 | 37170 ft | 598 kts | 94° |
| 2026-05-03 20:28 | 30.54481 | -95.95504 | 37132 ft | 598 kts | 93° |
| 2026-05-03 20:29 | 30.53264 | -95.85962 | 37107 ft | 598 kts | 93° |
| 2026-05-03 20:29 | 30.52021 | -95.76422 | 37121 ft | 598 kts | 94° |
| 2026-05-03 20:30 | 30.50762 | -95.66900 | 37143 ft | 597 kts | 94° |
| 2026-05-03 20:30 | 30.49498 | -95.57395 | 37185 ft | 596 kts | 94° |
| 2026-05-03 20:31 | 30.48230 | -95.47910 | 37197 ft | 595 kts | 94° |
| 2026-05-03 20:31 | 30.46961 | -95.38450 | 37198 ft | 594 kts | 94° |
| 2026-05-03 20:32 | 30.45685 | -95.29000 | 37223 ft | 593 kts | 94° |
| 2026-05-03 20:32 | 30.44403 | -95.19560 | 37197 ft | 592 kts | 94° |
| 2026-05-03 20:33 | 30.43119 | -95.10154 | 37195 ft | 591 kts | 94° |
| 2026-05-03 20:33 | 30.41829 | -95.00759 | 37192 ft | 590 kts | 94° |
| 2026-05-03 20:34 | 30.40533 | -94.91363 | 37215 ft | 590 kts | 94° |
| 2026-05-03 20:34 | 30.39239 | -94.82045 | 37195 ft | 590 kts | 94° |
| 2026-05-03 20:35 | 30.37924 | -94.72620 | 37193 ft | 589 kts | 94° |
| 2026-05-03 20:35 | 30.36620 | -94.63325 | 37186 ft | 588 kts | 94° |
| 2026-05-03 20:36 | 30.35302 | -94.53978 | 37218 ft | 588 kts | 95° |
| 2026-05-03 20:36 | 30.33978 | -94.44648 | 37184 ft | 586 kts | 95° |
| 2026-05-03 20:37 | 30.32652 | -94.35352 | 37146 ft | 585 kts | 95° |
| 2026-05-03 20:37 | 30.31323 | -94.26077 | 37185 ft | 584 kts | 95° |
| 2026-05-03 20:38 | 30.29988 | -94.16799 | 37230 ft | 585 kts | 95° |
| 2026-05-03 20:38 | 30.28643 | -94.07508 | 37194 ft | 585 kts | 96° |
| 2026-05-03 20:39 | 30.27292 | -93.98225 | 37188 ft | 585 kts | 96° |
| 2026-05-03 20:39 | 30.25935 | -93.88951 | 37187 ft | 584 kts | 96° |
| 2026-05-03 20:40 | 30.24574 | -93.79690 | 37221 ft | 584 kts | 96° |
| 2026-05-03 20:40 | 30.23207 | -93.70443 | 37203 ft | 583 kts | 96° |
| 2026-05-03 20:41 | 30.21837 | -93.61219 | 37211 ft | 581 kts | 96° |
| 2026-05-03 20:41 | 30.20463 | -93.52017 | 37211 ft | 580 kts | 96° |
| 2026-05-03 20:42 | 30.19087 | -93.42840 | 37199 ft | 579 kts | 96° |
| 2026-05-03 20:42 | 30.17705 | -93.33665 | 37200 ft | 579 kts | 96° |
| 2026-05-03 20:43 | 30.16316 | -93.24489 | 37214 ft | 580 kts | 96° |
| 2026-05-03 20:43 | 30.14921 | -93.15316 | 37216 ft | 580 kts | 97° |
| 2026-05-03 20:44 | 30.13009 | -93.06239 | 37209 ft | 584 kts | 107° |
| 2026-05-03 20:44 | 30.10235 | -92.97420 | 37202 ft | 585 kts | 109° |
| 2026-05-03 20:45 | 30.07421 | -92.88626 | 37178 ft | 583 kts | 109° |
| 2026-05-03 20:45 | 30.04657 | -92.79824 | 37222 ft | 583 kts | 109° |
| 2026-05-03 20:46 | 30.01921 | -92.71012 | 37213 ft | 583 kts | 108° |
| 2026-05-03 20:46 | 29.99183 | -92.62204 | 37229 ft | 584 kts | 109° |
| 2026-05-03 20:47 | 29.96431 | -92.53393 | 37217 ft | 583 kts | 109° |
| 2026-05-03 20:47 | 29.93693 | -92.44665 | 37201 ft | 582 kts | 109° |
| 2026-05-03 20:48 | 29.90914 | -92.35831 | 37184 ft | 582 kts | 109° |
| 2026-05-03 20:48 | 29.88170 | -92.27130 | 37204 ft | 581 kts | 110° |
| 2026-05-03 20:49 | 29.85404 | -92.18381 | 37178 ft | 581 kts | 110° |
| 2026-05-03 20:49 | 29.82639 | -92.09658 | 37179 ft | 580 kts | 110° |
| 2026-05-03 20:50 | 29.79870 | -92.00944 | 37138 ft | 579 kts | 110° |
| 2026-05-03 20:50 | 29.77095 | -91.92236 | 37178 ft | 579 kts | 110° |
| 2026-05-03 20:51 | 29.74314 | -91.83531 | 37192 ft | 581 kts | 111° |
| 2026-05-03 20:51 | 29.71522 | -91.74814 | 37194 ft | 581 kts | 111° |
| 2026-05-03 20:52 | 29.68722 | -91.66094 | 37212 ft | 581 kts | 111° |
| 2026-05-03 20:52 | 29.65918 | -91.57385 | 37211 ft | 581 kts | 111° |
| 2026-05-03 20:53 | 29.63106 | -91.48673 | 37221 ft | 581 kts | 111° |
| 2026-05-03 20:53 | 29.60289 | -91.39971 | 37219 ft | 581 kts | 111° |
| 2026-05-03 20:54 | 29.57947 | -91.32749 | 37217 ft | 580 kts | 112° |
| 2026-05-03 20:54 | 29.53232 | -91.18262 | 37152 ft | 580 kts | 112° |
| 2026-05-03 20:55 | 29.50401 | -91.09593 | 37195 ft | 580 kts | 112° |
| 2026-05-03 20:55 | 29.47563 | -91.00925 | 37171 ft | 580 kts | 112° |
| 2026-05-03 20:56 | 29.45200 | -90.93723 | 37177 ft | 580 kts | 112° |
| 2026-05-03 20:56 | 29.42352 | -90.85063 | 37176 ft | 580 kts | 112° |
| 2026-05-03 20:57 | 29.39498 | -90.76407 | 37169 ft | 580 kts | 113° |
| 2026-05-03 20:57 | 29.36635 | -90.67747 | 37175 ft | 580 kts | 113° |
| 2026-05-03 20:58 | 29.33772 | -90.59107 | 37170 ft | 580 kts | 113° |
| 2026-05-03 20:58 | 29.30899 | -90.50459 | 37182 ft | 580 kts | 114° |
| 2026-05-03 20:59 | 29.28023 | -90.41824 | 37189 ft | 580 kts | 114° |
| 2026-05-03 20:59 | 29.25142 | -90.33194 | 37193 ft | 580 kts | 114° |
| 2026-05-03 21:00 | 29.22745 | -90.26029 | 37160 ft | 579 kts | 115° |
| 2026-05-03 21:00 | 29.19368 | -90.15961 | 37177 ft | 580 kts | 115° |
| 2026-05-03 21:01 | 29.16452 | -90.07363 | 37169 ft | 580 kts | 116° |
| 2026-05-03 21:01 | 29.13305 | -89.98880 | 37166 ft | 579 kts | 118° |
| 2026-05-03 21:02 | 29.10070 | -89.90444 | 37158 ft | 580 kts | 118° |
| 2026-05-03 21:02 | 29.06857 | -89.81987 | 37159 ft | 580 kts | 118° |
| 2026-05-03 21:03 | 29.03669 | -89.73507 | 37158 ft | 581 kts | 117° |
| 2026-05-03 21:03 | 29.00484 | -89.65030 | 37158 ft | 581 kts | 118° |
| 2026-05-03 21:04 | 28.97289 | -89.56560 | 37157 ft | 581 kts | 118° |
| 2026-05-03 21:04 | 28.94092 | -89.48112 | 37124 ft | 581 kts | 118° |
| 2026-05-03 21:05 | 28.90900 | -89.39700 | 37157 ft | 582 kts | 118° |
| 2026-05-03 21:05 | 28.87673 | -89.31213 | 37159 ft | 583 kts | 118° |
| 2026-05-03 21:06 | 28.84435 | -89.22716 | 37158 ft | 585 kts | 118° |
| 2026-05-03 21:06 | 28.81185 | -89.14205 | 37155 ft | 586 kts | 118° |
| 2026-05-03 21:07 | 28.77925 | -89.05686 | 37155 ft | 586 kts | 118° |
| 2026-05-03 21:07 | 28.74660 | -88.97177 | 37154 ft | 587 kts | 118° |
| 2026-05-03 21:08 | 28.71385 | -88.88658 | 37152 ft | 587 kts | 118° |
| 2026-05-03 21:08 | 28.68107 | -88.80153 | 37141 ft | 586 kts | 119° |
| 2026-05-03 21:09 | 28.64828 | -88.71662 | 37095 ft | 586 kts | 119° |
| 2026-05-03 21:09 | 28.61543 | -88.63176 | 37141 ft | 586 kts | 120° |
| 2026-05-03 21:10 | 28.58252 | -88.54692 | 37146 ft | 586 kts | 120° |
| 2026-05-03 21:10 | 28.54955 | -88.46215 | 37138 ft | 587 kts | 120° |
| 2026-05-03 21:11 | 28.51648 | -88.37728 | 37145 ft | 587 kts | 120° |
| 2026-05-03 21:11 | 28.48340 | -88.29255 | 37139 ft | 586 kts | 120° |
| 2026-05-03 21:12 | 28.45026 | -88.20787 | 37138 ft | 586 kts | 120° |
| 2026-05-03 21:12 | 28.41708 | -88.12327 | 37139 ft | 586 kts | 120° |
| 2026-05-03 21:13 | 28.38404 | -88.03869 | 37131 ft | 586 kts | 119° |
| 2026-05-03 21:13 | 28.35704 | -87.95155 | 37144 ft | 590 kts | 114° |
| 2026-05-03 21:14 | 28.33207 | -87.86223 | 37145 ft | 589 kts | 113° |
| 2026-05-03 21:14 | 28.30716 | -87.77421 | 37136 ft | 589 kts | 114° |
| 2026-05-03 21:15 | 28.28162 | -87.68591 | 37140 ft | 589 kts | 114° |
| 2026-05-03 21:15 | 28.25587 | -87.59757 | 37139 ft | 590 kts | 114° |
| 2026-05-03 21:16 | 28.23009 | -87.50924 | 37137 ft | 590 kts | 114° |
| 2026-05-03 21:16 | 28.20431 | -87.42095 | 37136 ft | 590 kts | 114° |
| 2026-05-03 21:17 | 28.18282 | -87.34754 | 37135 ft | 590 kts | 115° |
| 2026-05-03 21:17 | 28.15255 | -87.24442 | 37127 ft | 590 kts | 115° |
| 2026-05-03 21:18 | 28.12658 | -87.15619 | 37135 ft | 590 kts | 115° |
| 2026-05-03 21:18 | 28.10054 | -87.06799 | 37128 ft | 591 kts | 115° |
| 2026-05-03 21:19 | 28.07444 | -86.97980 | 37131 ft | 591 kts | 115° |
| 2026-05-03 21:19 | 28.04826 | -86.89156 | 37129 ft | 591 kts | 116° |
| 2026-05-03 21:20 | 28.02208 | -86.80355 | 37087 ft | 590 kts | 115° |
| 2026-05-03 21:20 | 27.99601 | -86.71555 | 37121 ft | 590 kts | 115° |
| 2026-05-03 21:21 | 27.97051 | -86.62727 | 37125 ft | 590 kts | 115° |
| 2026-05-03 21:21 | 27.94508 | -86.53902 | 37108 ft | 590 kts | 115° |
| 2026-05-03 21:22 | 27.91953 | -86.45078 | 37124 ft | 590 kts | 115° |
| 2026-05-03 21:22 | 27.89387 | -86.36272 | 37131 ft | 590 kts | 115° |
| 2026-05-03 21:23 | 27.86810 | -86.27458 | 37123 ft | 590 kts | 115° |
| 2026-05-03 21:23 | 27.84228 | -86.18653 | 37122 ft | 590 kts | 115° |
| 2026-05-03 21:24 | 27.81645 | -86.09860 | 37115 ft | 590 kts | 116° |
| 2026-05-03 21:24 | 27.79057 | -86.01072 | 37121 ft | 590 kts | 116° |
| 2026-05-03 21:25 | 27.76462 | -85.92285 | 37114 ft | 589 kts | 116° |
| 2026-05-03 21:25 | 27.73863 | -85.83507 | 37117 ft | 589 kts | 116° |
| 2026-05-03 21:26 | 27.71260 | -85.74739 | 37120 ft | 589 kts | 116° |
| 2026-05-03 21:26 | 27.68651 | -85.65974 | 37113 ft | 589 kts | 116° |
| 2026-05-03 21:27 | 27.66035 | -85.57208 | 37112 ft | 589 kts | 116° |
| 2026-05-03 21:27 | 27.63433 | -85.48507 | 37107 ft | 589 kts | 116° |
| 2026-05-03 21:28 | 27.60809 | -85.39756 | 37101 ft | 589 kts | 116° |
| 2026-05-03 21:28 | 27.58458 | -85.30868 | 37107 ft | 597 kts | 108° |
| 2026-05-03 21:29 | 27.56966 | -85.21624 | 37096 ft | 600 kts | 106° |
| 2026-05-03 21:29 | 27.55412 | -85.12404 | 37101 ft | 598 kts | 107° |
| 2026-05-03 21:30 | 27.53787 | -85.03212 | 37089 ft | 598 kts | 108° |
| 2026-05-03 21:30 | 27.52166 | -84.94018 | 37099 ft | 598 kts | 108° |
| 2026-05-03 21:31 | 27.50540 | -84.84761 | 37099 ft | 598 kts | 108° |
| 2026-05-03 21:31 | 27.48928 | -84.75637 | 37094 ft | 598 kts | 108° |
| 2026-05-03 21:32 | 27.47278 | -84.66450 | 37054 ft | 598 kts | 108° |
| 2026-05-03 21:32 | 27.45624 | -84.57295 | 37083 ft | 596 kts | 108° |
| 2026-05-03 21:33 | 27.43970 | -84.48153 | 37083 ft | 595 kts | 108° |
| 2026-05-03 21:33 | 27.42315 | -84.39030 | 37087 ft | 594 kts | 108° |
| 2026-05-03 21:34 | 27.40657 | -84.29912 | 37082 ft | 594 kts | 108° |
| 2026-05-03 21:34 | 27.39003 | -84.20815 | 37075 ft | 593 kts | 108° |
| 2026-05-03 21:35 | 27.37343 | -84.11724 | 37079 ft | 593 kts | 108° |
| 2026-05-03 21:35 | 27.35678 | -84.02646 | 37073 ft | 593 kts | 108° |
| 2026-05-03 21:36 | 27.34008 | -83.93569 | 37034 ft | 592 kts | 108° |
| 2026-05-03 21:36 | 27.32335 | -83.84509 | 37062 ft | 591 kts | 108° |
| 2026-05-03 21:37 | 27.30656 | -83.75458 | 37063 ft | 591 kts | 108° |
| 2026-05-03 21:37 | 27.28973 | -83.66420 | 37065 ft | 591 kts | 108° |
| 2026-05-03 21:38 | 27.27285 | -83.57385 | 37063 ft | 591 kts | 108° |
| 2026-05-03 21:38 | 27.25589 | -83.48345 | 37067 ft | 590 kts | 108° |
| 2026-05-03 21:39 | 27.23892 | -83.39328 | 37049 ft | 590 kts | 108° |
| 2026-05-03 21:39 | 27.22188 | -83.30311 | 37056 ft | 590 kts | 108° |
| 2026-05-03 21:40 | 27.20480 | -83.21303 | 37059 ft | 589 kts | 108° |
| 2026-05-03 21:40 | 27.19055 | -83.13809 | 36883 ft | 591 kts | 108° |
| 2026-05-03 21:41 | 27.17906 | -83.07780 | 36554 ft | 589 kts | 108° |
| 2026-05-03 21:41 | 27.17055 | -83.03287 | 36318 ft | 588 kts | 108° |
| 2026-05-03 21:41 | 27.16493 | -83.00308 | 36183 ft | 587 kts | 108° |
| 2026-05-03 21:41 | 27.15649 | -82.95828 | 35967 ft | 587 kts | 108° |
| 2026-05-03 21:42 | 27.14803 | -82.91347 | 35760 ft | 586 kts | 108° |
| 2026-05-03 21:42 | 27.13953 | -82.86878 | 35577 ft | 585 kts | 109° |
| 2026-05-03 21:42 | 27.12800 | -82.82550 | 35394 ft | 571 kts | 122° |
| 2026-05-03 21:42 | 27.10890 | -82.78739 | 35256 ft | 557 kts | 132° |
| 2026-05-03 21:43 | 27.08746 | -82.75104 | 35056 ft | 562 kts | 133° |
| 2026-05-03 21:43 | 27.06569 | -82.71432 | 34819 ft | 568 kts | 132° |
| 2026-05-03 21:43 | 27.04421 | -82.67706 | 34533 ft | 569 kts | 131° |
| 2026-05-03 21:43 | 27.02312 | -82.63934 | 34221 ft | 570 kts | 130° |
| 2026-05-03 21:44 | 27.00234 | -82.60145 | 33890 ft | 571 kts | 130° |
| 2026-05-03 21:44 | 26.98171 | -82.56359 | 33533 ft | 569 kts | 130° |
| 2026-05-03 21:44 | 26.96105 | -82.52579 | 33139 ft | 567 kts | 129° |
| 2026-05-03 21:44 | 26.94037 | -82.48821 | 32761 ft | 565 kts | 129° |
| 2026-05-03 21:45 | 26.91953 | -82.45112 | 32348 ft | 556 kts | 132° |
| 2026-05-03 21:45 | 26.89533 | -82.41865 | 31885 ft | 530 kts | 146° |
| 2026-05-03 21:45 | 26.86769 | -82.39235 | 31485 ft | 517 kts | 149° |
| 2026-05-03 21:45 | 26.83904 | -82.36869 | 31038 ft | 505 kts | 156° |
| 2026-05-03 21:46 | 26.80872 | -82.35048 | 30610 ft | 486 kts | 165° |
| 2026-05-03 21:46 | 26.77757 | -82.33757 | 30192 ft | 471 kts | 170° |
| 2026-05-03 21:46 | 26.74645 | -82.32733 | 29711 ft | 462 kts | 172° |
| 2026-05-03 21:46 | 26.71557 | -82.31810 | 29236 ft | 457 kts | 173° |
| 2026-05-03 21:47 | 26.68489 | -82.30923 | 28749 ft | 454 kts | 173° |
| 2026-05-03 21:47 | 26.65432 | -82.30048 | 28233 ft | 452 kts | 174° |
| 2026-05-03 21:47 | 26.62409 | -82.29188 | 27783 ft | 450 kts | 174° |
| 2026-05-03 21:47 | 26.59382 | -82.28330 | 27339 ft | 448 kts | 174° |
| 2026-05-03 21:48 | 26.56365 | -82.27478 | 26892 ft | 446 kts | 174° |
| 2026-05-03 21:48 | 26.53407 | -82.26648 | 26469 ft | 444 kts | 174° |
| 2026-05-03 21:48 | 26.50419 | -82.25813 | 26048 ft | 442 kts | 174° |
| 2026-05-03 21:48 | 26.47443 | -82.24985 | 25595 ft | 439 kts | 174° |
| 2026-05-03 21:49 | 26.44486 | -82.24165 | 25195 ft | 436 kts | 174° |
| 2026-05-03 21:49 | 26.41570 | -82.23355 | 24770 ft | 425 kts | 174° |
| 2026-05-03 21:49 | 26.38767 | -82.22564 | 24331 ft | 407 kts | 174° |
| 2026-05-03 21:49 | 26.36068 | -82.21791 | 24117 ft | 400 kts | 174° |
| 2026-05-03 21:50 | 26.33360 | -82.21021 | 24044 ft | 403 kts | 174° |
| 2026-05-03 21:50 | 26.30646 | -82.20254 | 24035 ft | 402 kts | 174° |
| 2026-05-03 21:50 | 26.27950 | -82.19491 | 24018 ft | 398 kts | 174° |
| 2026-05-03 21:50 | 26.25276 | -82.18733 | 24019 ft | 396 kts | 174° |
| 2026-05-03 21:51 | 26.22608 | -82.17975 | 24026 ft | 396 kts | 174° |
| 2026-05-03 21:51 | 26.19941 | -82.17218 | 24030 ft | 396 kts | 174° |
| 2026-05-03 21:51 | 26.17268 | -82.16460 | 24040 ft | 400 kts | 174° |
| 2026-05-03 21:51 | 26.14563 | -82.15466 | 24024 ft | 427 kts | 159° |
| 2026-05-03 21:52 | 26.12113 | -82.13364 | 24015 ft | 466 kts | 138° |
| 2026-05-03 21:52 | 26.10311 | -82.10275 | 23791 ft | 489 kts | 118° |
| 2026-05-03 21:52 | 26.09478 | -82.06582 | 23450 ft | 500 kts | 97° |
| 2026-05-03 21:52 | 26.09654 | -82.02704 | 23088 ft | 501 kts | 84° |
| 2026-05-03 21:53 | 26.10102 | -81.98880 | 22723 ft | 497 kts | 85° |
| 2026-05-03 21:53 | 26.10375 | -81.95063 | 22298 ft | 494 kts | 90° |
| 2026-05-03 21:53 | 26.10414 | -81.91261 | 21859 ft | 490 kts | 94° |
| 2026-05-03 21:53 | 26.10275 | -81.87487 | 21437 ft | 486 kts | 96° |
| 2026-05-03 21:54 | 26.10039 | -81.83758 | 21020 ft | 481 kts | 97° |
| 2026-05-03 21:54 | 26.09766 | -81.80063 | 20615 ft | 477 kts | 97° |
| 2026-05-03 21:54 | 26.09494 | -81.76403 | 20212 ft | 473 kts | 97° |
| 2026-05-03 21:54 | 26.09234 | -81.72769 | 19807 ft | 469 kts | 97° |
| 2026-05-03 21:55 | 26.08986 | -81.69156 | 19420 ft | 466 kts | 97° |
| 2026-05-03 21:55 | 26.08750 | -81.65582 | 19029 ft | 462 kts | 96° |
| 2026-05-03 21:55 | 26.08518 | -81.62025 | 18645 ft | 459 kts | 96° |
| 2026-05-03 21:55 | 26.08255 | -81.58500 | 18260 ft | 456 kts | 99° |
| 2026-05-03 21:56 | 26.07686 | -81.55049 | 17864 ft | 451 kts | 107° |
| 2026-05-03 21:56 | 26.06770 | -81.51733 | 17446 ft | 448 kts | 114° |
| 2026-05-03 21:56 | 26.05687 | -81.48489 | 17052 ft | 448 kts | 114° |
| 2026-05-03 21:56 | 26.04616 | -81.45235 | 16609 ft | 447 kts | 113° |
| 2026-05-03 21:57 | 26.03570 | -81.41992 | 16135 ft | 445 kts | 113° |
| 2026-05-03 21:57 | 26.02540 | -81.38767 | 15733 ft | 440 kts | 113° |
| 2026-05-03 21:57 | 26.01526 | -81.35580 | 15361 ft | 435 kts | 112° |
| 2026-05-03 21:57 | 26.00518 | -81.32417 | 15031 ft | 433 kts | 113° |
| 2026-05-03 21:58 | 25.99512 | -81.29263 | 14601 ft | 433 kts | 112° |
| 2026-05-03 21:58 | 25.98505 | -81.26107 | 14242 ft | 432 kts | 113° |
| 2026-05-03 21:58 | 25.97498 | -81.22970 | 13757 ft | 429 kts | 112° |
| 2026-05-03 21:58 | 25.96505 | -81.19872 | 13338 ft | 423 kts | 111° |
| 2026-05-03 21:59 | 25.95525 | -81.16805 | 12970 ft | 420 kts | 112° |
| 2026-05-03 21:59 | 25.94546 | -81.13758 | 12496 ft | 418 kts | 112° |
| 2026-05-03 21:59 | 25.93574 | -81.10725 | 12055 ft | 414 kts | 112° |
| 2026-05-03 21:59 | 25.92616 | -81.07735 | 11627 ft | 409 kts | 112° |
| 2026-05-03 22:00 | 25.91667 | -81.04782 | 11212 ft | 404 kts | 112° |
| 2026-05-03 22:00 | 25.90686 | -81.01878 | 10808 ft | 398 kts | 115° |
| 2026-05-03 22:00 | 25.89606 | -80.99068 | 10399 ft | 394 kts | 116° |
| 2026-05-03 22:00 | 25.88506 | -80.96299 | 10021 ft | 390 kts | 116° |
| 2026-05-03 22:01 | 25.87430 | -80.93549 | 9598 ft | 387 kts | 116° |
| 2026-05-03 22:01 | 25.86374 | -80.90815 | 9183 ft | 383 kts | 115° |
| 2026-05-03 22:01 | 25.85332 | -80.88103 | 8833 ft | 381 kts | 115° |
| 2026-05-03 22:01 | 25.84292 | -80.85397 | 8490 ft | 382 kts | 115° |
| 2026-05-03 22:02 | 25.83251 | -80.82687 | 8141 ft | 379 kts | 115° |
| 2026-05-03 22:02 | 25.82236 | -80.80048 | 7766 ft | 367 kts | 115° |
| 2026-05-03 22:02 | 25.81238 | -80.77457 | 7395 ft | 363 kts | 115° |
| 2026-05-03 22:02 | 25.80249 | -80.74891 | 7049 ft | 359 kts | 115° |
| 2026-05-03 22:03 | 25.79041 | -80.72505 | 6733 ft | 351 kts | 132° |
| 2026-05-03 22:03 | 25.77222 | -80.70812 | 6789 ft | 340 kts | 156° |
| 2026-05-03 22:03 | 25.75005 | -80.69931 | 7144 ft | 336 kts | 169° |
| 2026-05-03 22:03 | 25.72769 | -80.69378 | 7452 ft | 317 kts | 172° |
| 2026-05-03 22:04 | 25.70686 | -80.68912 | 7674 ft | 297 kts | 173° |
| 2026-05-03 22:04 | 25.68726 | -80.68348 | 7670 ft | 286 kts | 157° |
| 2026-05-03 22:04 | 25.67282 | -80.66920 | 7687 ft | 280 kts | 122° |
| 2026-05-03 22:04 | 25.66801 | -80.64862 | 7694 ft | 281 kts | 86° |
| 2026-05-03 22:05 | 25.67423 | -80.62833 | 7669 ft | 282 kts | 51° |
| 2026-05-03 22:05 | 25.68881 | -80.61440 | 7555 ft | 274 kts | 32° |
| 2026-05-03 22:05 | 25.70312 | -80.60058 | 7374 ft | 274 kts | 46° |
| 2026-05-03 22:05 | 25.71485 | -80.58379 | 7058 ft | 276 kts | 50° |
| 2026-05-03 22:06 | 25.72648 | -80.56674 | 6463 ft | 280 kts | 55° |
| 2026-05-03 22:06 | 25.73734 | -80.54856 | 5700 ft | 284 kts | 56° |
| 2026-05-03 22:06 | 25.74778 | -80.53047 | 5046 ft | 279 kts | 57° |
| 2026-05-03 22:06 | 25.75814 | -80.51214 | 4310 ft | 276 kts | 57° |
| 2026-05-03 22:07 | 25.76807 | -80.49441 | 3625 ft | 272 kts | 57° |
| 2026-05-03 22:07 | 25.77771 | -80.47711 | 3301 ft | 253 kts | 57° |
| 2026-05-03 22:07 | 25.78656 | -80.46099 | 3100 ft | 230 kts | 58° |
| 2026-05-03 22:07 | 25.79446 | -80.44650 | 2913 ft | 210 kts | 58° |
| 2026-05-03 22:08 | 25.80086 | -80.43278 | 2717 ft | 192 kts | 77° |
| 2026-05-03 22:08 | 25.79981 | -80.41905 | 2467 ft | 171 kts | 121° |
| 2026-05-03 22:08 | 25.79147 | -80.41116 | 2332 ft | 156 kts | 163° |
| 2026-05-03 22:08 | 25.78092 | -80.40828 | 2182 ft | 157 kts | 171° |
| 2026-05-03 22:09 | 25.76933 | -80.40639 | 2019 ft | 180 kts | 172° |
| 2026-05-03 22:09 | 25.75635 | -80.40442 | 1767 ft | 195 kts | 172° |
| 2026-05-03 22:09 | 25.74243 | -80.40238 | 1670 ft | 209 kts | 172° |
| 2026-05-03 22:10 | 25.71264 | -80.39812 | 2101 ft | 220 kts | 174° |
| 2026-05-03 22:10 | 25.69759 | -80.40001 | 2306 ft | 221 kts | 204° |
| 2026-05-03 22:10 | 25.68598 | -80.41071 | 2455 ft | 220 kts | 239° |
| 2026-05-03 22:10 | 25.68112 | -80.42633 | 2631 ft | 217 kts | 260° |
| 2026-05-03 22:11 | 25.67881 | -80.44288 | 2816 ft | 217 kts | 262° |
| 2026-05-03 22:11 | 25.67726 | -80.45946 | 2923 ft | 216 kts | 273° |
| 2026-05-03 22:11 | 25.67992 | -80.47579 | 2969 ft | 216 kts | 283° |
| 2026-05-03 22:11 | 25.68342 | -80.49197 | 2983 ft | 216 kts | 283° |
| 2026-05-03 22:12 | 25.68690 | -80.50827 | 2997 ft | 219 kts | 282° |
| 2026-05-03 22:12 | 25.69050 | -80.52484 | 2994 ft | 221 kts | 283° |
| 2026-05-03 22:12 | 25.69764 | -80.53963 | 3038 ft | 224 kts | 313° |
| 2026-05-03 22:12 | 25.71162 | -80.54758 | 3018 ft | 227 kts | 348° |
| 2026-05-03 22:13 | 25.72712 | -80.54946 | 2970 ft | 224 kts | 353° |
| 2026-05-03 22:13 | 25.74291 | -80.54917 | 2990 ft | 235 kts | 13° |
| 2026-05-03 22:13 | 25.75740 | -80.54068 | 2919 ft | 239 kts | 44° |
| 2026-05-03 22:13 | 25.76777 | -80.52687 | 2797 ft | 227 kts | 52° |
| 2026-05-03 22:14 | 25.77566 | -80.51235 | 2831 ft | 219 kts | 73° |
| 2026-05-03 22:14 | 25.77813 | -80.49538 | 2865 ft | 227 kts | 84° |
| 2026-05-03 22:14 | 25.77941 | -80.47768 | 2858 ft | 232 kts | 87° |
| 2026-05-03 22:14 | 25.78019 | -80.45985 | 2728 ft | 230 kts | 88° |
| 2026-05-03 22:15 | 25.78087 | -80.44270 | 2448 ft | 212 kts | 88° |
| 2026-05-03 22:15 | 25.78150 | -80.42731 | 2170 ft | 186 kts | 87° |
| 2026-05-03 22:15 | 25.78206 | -80.41387 | 1995 ft | 164 kts | 87° |
| 2026-05-03 22:15 | 25.78255 | -80.40180 | 1746 ft | 149 kts | 87° |
| 2026-05-03 22:16 | 25.78301 | -80.39055 | 1365 ft | 144 kts | 88° |
| 2026-05-03 22:16 | 25.78323 | -80.37953 | 1045 ft | 143 kts | 89° |
| 2026-05-03 22:16 | 25.78352 | -80.36859 | 1002 ft | 142 kts | 88° |
| 2026-05-03 22:16 | 25.78418 | -80.35740 | 891 ft | 148 kts | 86° |
| 2026-05-03 22:17 | 25.78491 | -80.34612 | 711 ft | 143 kts | 86° |
| 2026-05-03 22:17 | 25.78532 | -80.33537 | 486 ft | 136 kts | 89° |
| 2026-05-03 22:17 | 25.78556 | -80.32512 | 328 ft | 134 kts | 88° |
| 2026-05-03 22:17 | 25.78608 | -80.31475 | 151 ft | 134 kts | 88° |
| 2026-05-03 22:18 | 25.78644 | -80.30444 | 27 ft | 127 kts | 88° |
| 2026-05-03 22:18 | 25.78677 | -80.29802 | 26 ft | 46 kts | 86° |
| 2026-05-03 22:18 | 25.78694 | -80.29484 | 24 ft | 33 kts | 88° |
| 2026-05-03 22:18 | 25.78730 | -80.29247 | 27 ft | 24 kts | 65° |
| 2026-05-03 22:19 | 25.78814 | -80.29107 | 27 ft | 20 kts | 77° |
| 2026-05-03 22:19 | 25.78819 | -80.29063 | 27 ft | 0 kts | 83° |
| 2026-05-03 22:19 | 25.78819 | -80.29057 | 27 ft | 1 kts | 83° |
| 2026-05-03 22:19 | 25.78821 | -80.29046 | 28 ft | 2 kts | 80° |
| 2026-05-03 22:20 | 25.78832 | -80.28992 | 28 ft | 13 kts | 76° |
| 2026-05-03 22:20 | 25.78863 | -80.28850 | 25 ft | 25 kts | 83° |
| 2026-05-03 22:20 | 25.78874 | -80.28620 | 24 ft | 34 kts | 88° |
| 2026-05-03 22:20 | 25.78881 | -80.28437 | 28 ft | 22 kts | 88° |
| 2026-05-03 22:21 | 25.78942 | -80.28266 | 28 ft | 26 kts | 50° |
| 2026-05-03 22:21 | 25.79019 | -80.28134 | 30 ft | 18 kts | 84° |
| 2026-05-03 22:21 | 25.78962 | -80.27972 | 31 ft | 27 kts | 116° |
| 2026-05-03 22:21 | 25.78880 | -80.27793 | 27 ft | 26 kts | 98° |
| 2026-05-03 22:22 | 25.78891 | -80.27604 | 27 ft | 15 kts | 81° |
| 2026-05-03 22:22 | 25.78934 | -80.27495 | 27 ft | 19 kts | 30° |
| 2026-05-03 22:22 | 25.79062 | -80.27488 | 27 ft | 13 kts | 0° |
| 2026-05-03 22:22 | 25.79126 | -80.27427 | 27 ft | 0 kts | 83° |